Time;durP1;ratioP1;P1;durP2;ratioP2;P2;SDS_P1;SDS_P2;PMS_P1;PMS_P2;Temp;Humidity;BMP_temperature;BMP_pressure;BME280_temperature;BME280_humidity;BME280_pressure;Samples;Min_cycle;Max_cycle;Signal;HPM_P1;HPM_P2
2021/07/08 00:01:34;;;;;;;;;;;;;;;;;;4980382;28;19935;-88
2021/07/08 00:04:02;;;;;;;;;;;;;;;;;;4964164;28;20568;-86
2021/07/08 00:06:32;;;;;;;;;;;;;;;;;;4975369;28;19926;-88
2021/07/08 00:09:00;;;;;;;;;;;;;;;;;;4981697;28;19926;-87
2021/07/08 00:11:29;;;;;;;;;;;;;;;;;;4969286;28;20136;-86
2021/07/08 00:13:57;;;;;;;;;;;;;;;;;;4987218;28;19932;-90
2021/07/08 00:16:27;;;;;;;;;;;;;;;;;;4962289;28;19933;-89
2021/07/08 00:18:56;;;;;;;;;;;;;;;;;;4970973;28;19933;-87
2021/07/08 00:21:24;;;;;;;;;;;;;;;;;;4953967;28;19926;-88
2021/07/08 00:23:53;;;;;;;;;;;;;;;;;;4966162;28;19926;-88
2021/07/08 00:26:21;;;;;;;;;;;;;;;;;;4947608;28;19935;-87
2021/07/08 00:28:50;;;;;;;;;;;;;;;;;;4953820;28;20293;-88
2021/07/08 00:31:18;;;;;;;;;;;;;;;;;;4948937;28;19933;-89
2021/07/08 00:33:48;;;;;;;;;;;;;;;;;;4949480;28;19938;-88
2021/07/08 00:36:17;;;;;;;;;;;;;;;;;;4972731;28;19927;-88
2021/07/08 00:38:45;;;;;;;;;;;;;;;;;;4975347;28;19937;-89
2021/07/08 00:41:13;;;;;;;;;;;;;;;;;;4964987;28;19979;-87
2021/07/08 00:43:41;;;;;;;;;;;;;;;;;;4963551;28;19927;-88
2021/07/08 00:46:10;;;;;;;;;;;;;;;;;;4948870;28;19927;-88
2021/07/08 00:48:38;;;;;;;;;;;;;;;;;;4948479;28;19927;-88
2021/07/08 00:51:08;;;;;;;;;;;;;;;;;;4967504;28;20554;-88
2021/07/08 00:53:36;;;;;;;;;;;;;;;;;;4955230;28;20001;-89
2021/07/08 00:56:05;;;;;;;;;;;;;;;;;;4995548;28;19933;-88
2021/07/08 00:58:33;;;;;;;;;;;;;;;;;;4979458;28;19938;-89
2021/07/08 01:01:02;;;;;;;;;;;;;;;;;;4977437;28;19926;-87
2021/07/08 01:03:31;;;;;;;;;;;;;;;;;;4971598;28;20424;-88
2021/07/08 01:05:59;;;;;;;;;;;;;;;;;;4964309;28;19997;-87
2021/07/08 01:08:29;;;;;;;;;;;;;;;;;;4987780;28;19934;-86
2021/07/08 01:10:57;;;;;;;;;;;;;;;;;;4979003;28;20230;-88
2021/07/08 01:13:25;;;;;;;;;;;;;;;;;;4967580;28;19953;-87
2021/07/08 01:15:54;;;;;;;;;;;;;;;;;;4973058;28;19926;-88
2021/07/08 01:18:22;;;;;;;;;;;;;;;;;;4971571;28;19942;-87
2021/07/08 01:20:51;;;;;;;;;;;;;;;;;;4973801;28;19926;-87
2021/07/08 01:23:20;;;;;;;;;;;;;;;;;;4991386;28;19927;-88
2021/07/08 01:25:49;;;;;;;;;;;;;;;;;;4978277;28;19930;-87
2021/07/08 01:28:17;;;;;;;;;;;;;;;;;;4950084;28;19934;-86
2021/07/08 01:30:46;;;;;;;;;;;;;;;;;;4987895;28;20304;-87
2021/07/08 01:33:14;;;;;;;;;;;;;;;;;;4970552;28;19934;-87
2021/07/08 01:35:43;;;;;;;;;;;;;;;;;;4983712;28;20306;-86
2021/07/08 01:38:11;;;;;;;;;;;;;;;;;;4956435;28;20009;-87
2021/07/08 01:40:41;;;;;;;;;;;;;;;;;;4966203;28;19934;-87
2021/07/08 01:43:09;;;;;;;;;;;;;;;;;;4945447;28;20446;-87
2021/07/08 01:45:37;;;;;;;;;;;;;;;;;;4960579;28;19927;-87
2021/07/08 01:48:06;;;;;;;;;;;;;;;;;;4960223;28;19930;-88
2021/07/08 01:50:34;;;;;;;;;;;;;;;;;;4955221;28;19926;-87
2021/07/08 01:53:02;;;;;;;;;;;;;;;;;;4962898;28;19927;-87
2021/07/08 01:55:30;;;;;;;;;;;;;;;;;;5028831;28;20321;-89
2021/07/08 01:58:01;;;;;;;;;;;;;;;;;;4965772;28;19948;-88
2021/07/08 02:00:29;;;;;;;;;;;;;;;;;;4947440;28;19926;-88
2021/07/08 02:02:57;;;;;;;;;;;;;;;;;;4966958;28;19934;-88
2021/07/08 02:05:26;;;;;;;;;;;;;;;;;;4969299;28;19926;-87
2021/07/08 02:07:54;;;;;;;;;;;;;;;;;;4958508;28;19934;-88
2021/07/08 02:10:22;;;;;;;;;;;;;;;;;;4989754;28;19930;-88
2021/07/08 02:12:52;;;;;;;;;;;;;;;;;;4966023;28;20309;-88
2021/07/08 02:15:22;;;;;;;;;;;;;;;;;;4975588;28;19936;-88
2021/07/08 02:17:51;;;;;;;;;;;;;;;;;;4967078;28;20381;-87
2021/07/08 02:20:20;;;;;;;;;;;;;;;;;;4962086;28;19934;-88
2021/07/08 02:22:48;;;;;;;;;;;;;;;;;;4983302;28;19937;-88
2021/07/08 02:25:19;;;;;;;;;;;;;;;;;;4964573;28;19934;-87
2021/07/08 02:27:47;;;;;;;;;;;;;;;;;;4978459;28;19926;-88
2021/07/08 02:30:16;;;;;;;;;;;;;;;;;;4950200;28;19936;-87
2021/07/08 02:32:48;;;;;;;;;;;;;;;;;;4964580;28;19927;-88
2021/07/08 02:35:17;;;;;;;;;;;;;;;;;;4965841;28;19933;-87
2021/07/08 02:37:45;;;;;;;;;;;;;;;;;;4972085;28;19941;-88
2021/07/08 02:40:16;;;;;;;;;;;;;;;;;;4964729;28;19934;-87
2021/07/08 02:42:47;;;;;;;;;;;;;;;;;;4996290;28;19957;-87
2021/07/08 02:45:16;;;;;;;;;;;;;;;;;;5005758;28;19926;-88
2021/07/08 02:47:46;;;;;;;;;;;;;;;;;;4968829;28;19937;-88
2021/07/08 02:50:15;;;;;;;;;;;;;;;;;;4944036;28;19926;-85
2021/07/08 02:52:43;;;;;;;;;;;;;;;;;;4961688;28;19927;-87
2021/07/08 02:55:13;;;;;;;;;;;;;;;;;;4963335;28;20019;-87
2021/07/08 02:57:41;;;;;;;;;;;;;;;;;;4965095;28;20389;-87
2021/07/08 03:00:10;;;;;;;;;;;;;;;;;;5027979;28;20498;-88
2021/07/08 03:02:39;;;;;;;;;;;;;;;;;;4962664;28;20397;-87
2021/07/08 03:05:10;;;;;;;;;;;;;;;;;;4950731;28;19926;-86
2021/07/08 03:07:38;;;;;;;;;;;;;;;;;;4943225;28;19930;-88
2021/07/08 03:10:07;;;;;;;;;;;;;;;;;;4967095;28;19933;-89
2021/07/08 03:12:36;;;;;;;;;;;;;;;;;;4962209;28;20409;-86
2021/07/08 03:15:04;;;;;;;;;;;;;;;;;;4998682;28;19914;-87
2021/07/08 03:17:33;;;;;;;;;;;;;;;;;;4983736;28;19916;-87
2021/07/08 03:20:01;;;;;;;;;;;;;;;;;;4992987;28;19914;-86
2021/07/08 03:22:32;;;;;;;;;;;;;;;;;;5001681;28;20403;-88
2021/07/08 03:25:00;;;;;;;;;;;;;;;;;;4946606;28;20412;-88
2021/07/08 03:27:29;;;;;;;;;;;;;;;;;;4966389;28;19926;-86
2021/07/08 03:29:58;;;;;;;;;;;;;;;;;;4979049;28;19934;-89
2021/07/08 03:32:26;;;;;;;;;;;;;;;;;;4965653;28;19934;-87
2021/07/08 03:34:54;;;;;;;;;;;;;;;;;;4964034;28;19926;-87
2021/07/08 03:37:22;;;;;;;;;;;;;;;;;;4971299;28;19926;-88
2021/07/08 03:39:52;;;;;;;;;;;;;;;;;;4964009;28;19930;-88
2021/07/08 03:42:20;;;;;;;;;;;;;;;;;;5010713;28;19929;-88
2021/07/08 03:44:49;;;;;;;;;;;;;;;;;;4951531;28;20305;-88
2021/07/08 03:47:17;;;;;;;;;;;;;;;;;;4965235;28;19926;-88
2021/07/08 03:49:45;;;;;;;;;;;;;;;;;;4995309;28;20522;-87
2021/07/08 03:52:14;;;;;;;;;;;;;;;;;;4992313;28;19934;-88
2021/07/08 03:54:42;;;;;;;;;;;;;;;;;;4979479;28;19933;-89
2021/07/08 03:57:11;;;;;;;;;;;;;;;;;;4961163;28;20392;-88
2021/07/08 03:59:39;;;;;;;;;;;;;;;;;;4947185;28;20317;-89
2021/07/08 04:02:08;;;;;;;;;;;;;;;;;;4987367;28;20397;-88
2021/07/08 04:04:38;;;;;;;;;;;;;;;;;;4959266;28;19941;-88
2021/07/08 04:07:06;;;;;;;;;;;;;;;;;;4992911;28;19937;-87
2021/07/08 04:09:35;;;;;;;;;;;;;;;;;;4960115;28;20416;-88
2021/07/08 04:12:03;;;;;;;;;;;;;;;;;;4976499;28;19926;-87
2021/07/08 04:14:33;;;;;;;;;;;;;;;;;;4993270;28;19926;-88
2021/07/08 04:17:02;;;;;;;;;;;;;;;;;;4989020;28;19915;-87
2021/07/08 04:19:30;;;;;;;;;;;;;;;;;;4975023;28;19914;-88
2021/07/08 04:21:58;;;;;;;;;;;;;;;;;;4986282;28;19944;-88
2021/07/08 04:24:26;;;;;;;;;;;;;;;;;;4985793;28;19935;-88
2021/07/08 04:26:55;;;;;;;;;;;;;;;;;;4964597;28;19930;-88
2021/07/08 04:29:23;;;;;;;;;;;;;;;;;;4966326;28;20377;-87
2021/07/08 04:31:52;;;;;;;;;;;;;;;;;;4984102;28;19925;-89
2021/07/08 04:34:21;;;;;;;;;;;;;;;;;;4980321;28;19976;-87
2021/07/08 04:36:49;;;;;;;;;;;;;;;;;;4968073;28;20305;-87
2021/07/08 04:39:17;;;;;;;;;;;;;;;;;;4960937;28;19927;-88
2021/07/08 04:41:47;;;;;;;;;;;;;;;;;;4986031;28;19933;-87
2021/07/08 04:44:15;;;;;;;;;;;;;;;;;;4947672;28;19933;-87
2021/07/08 04:46:43;;;;;;;;;;;;;;;;;;4962737;28;20349;-87
2021/07/08 04:49:13;;;;;;;;;;;;;;;;;;4974345;28;19930;-88
2021/07/08 04:51:42;;;;;;;;;;;;;;;;;;4965913;28;20281;-87
2021/07/08 04:54:10;;;;;;;;;;;;;;;;;;4979436;28;20313;-87
2021/07/08 04:56:38;;;;;;;;;;;;;;;;;;4949941;28;19941;-87
2021/07/08 04:59:06;;;;;;;;;;;;;;;;;;4965561;28;19937;-87
2021/07/08 05:01:34;;;;;;;;;;;;;;;;;;5007559;28;20322;-87
2021/07/08 05:04:03;;;;;;;;;;;;;;;;;;4968693;28;19930;-87
2021/07/08 05:06:33;;;;;;;;;;;;;;;;;;4940185;28;20386;-87
2021/07/08 05:09:01;;;;;;;;;;;;;;;;;;4959307;28;20333;-86
2021/07/08 05:11:29;;;;;;;;;;;;;;;;;;4953992;28;19926;-85
2021/07/08 05:13:57;;;;;;;;;;;;;;;;;;4969443;28;19938;-88
2021/07/08 05:16:25;;;;;;;;;;;;;;;;;;4956243;28;20413;-86
2021/07/08 05:18:54;;;;;;;;;;;;;;;;;;5000752;28;19932;-88
2021/07/08 05:21:22;;;;;;;;;;;;;;;;;;4962091;28;19936;-86
2021/07/08 05:23:57;;;;;;;;;;;;;;;;;;4972198;28;19924;-87
2021/07/08 05:26:26;;;;;;;;;;;;;;;;;;4974060;28;20389;-88
2021/07/08 05:28:54;;;;;;;;;;;;;;;;;;5003194;28;20304;-87
2021/07/08 05:31:22;;;;;;;;;;;;;;;;;;4963286;28;19938;-86
2021/07/08 05:33:50;;;;;;;;;;;;;;;;;;4972672;28;19949;-87
2021/07/08 05:36:18;;;;;;;;;;;;;;;;;;4997004;28;19932;-87
2021/07/08 05:38:47;;;;;;;;;;;;;;;;;;4991359;28;19921;-85
2021/07/08 05:41:16;;;;;;;;;;;;;;;;;;4979738;28;19931;-84
2021/07/08 05:43:44;;;;;;;;;;;;;;;;;;4974982;28;19937;-87
2021/07/08 05:46:12;;;;;;;;;;;;;;;;;;4988423;28;19931;-86
2021/07/08 05:48:41;;;;;;;;;;;;;;;;;;4990867;28;19933;-84
2021/07/08 05:51:09;;;;;;;;;;;;;;;;;;4970260;28;19937;-85
2021/07/08 05:53:37;;;;;;;;;;;;;;;;;;4999516;28;20393;-84
2021/07/08 05:56:05;;;;;;;;;;;;;;;;;;4993985;28;19937;-85
2021/07/08 05:58:35;;;;;;;;;;;;;;;;;;4998271;28;19927;-86
2021/07/08 06:01:03;;;;;;;;;;;;;;;;;;4980236;28;19926;-85
2021/07/08 06:03:33;;;;;;;;;;;;;;;;;;4961785;28;19927;-84
2021/07/08 06:06:01;;;;;;;;;;;;;;;;;;4964984;28;19934;-85
2021/07/08 06:08:30;;;;;;;;;;;;;;;;;;4979287;28;19939;-86
2021/07/08 06:10:58;;;;;;;;;;;;;;;;;;4967269;28;19949;-85
2021/07/08 06:13:26;;;;;;;;;;;;;;;;;;4978352;28;19926;-85
2021/07/08 06:15:56;;;;;;;;;;;;;;;;;;4962634;28;19931;-84
2021/07/08 06:18:29;;;;;;;;;;;;;;;;;;4973420;28;19926;-84
2021/07/08 06:20:58;;;;;;;;;;;;;;;;;;4960141;28;19941;-84
2021/07/08 06:23:26;;;;;;;;;;;;;;;;;;4967938;28;19926;-85
2021/07/08 06:25:54;;;;;;;;;;;;;;;;;;4969364;28;19933;-84
2021/07/08 06:28:22;;;;;;;;;;;;;;;;;;4984901;28;19934;-86
2021/07/08 06:30:51;;;;;;;;;;;;;;;;;;4978697;28;20004;-85
2021/07/08 06:33:20;;;;;;;;;;;;;;;;;;4946219;28;19934;-87
2021/07/08 06:35:49;;;;;;;;;;;;;;;;;;4956646;28;19927;-85
2021/07/08 06:38:17;;;;;;;;;;;;;;;;;;4967825;28;20417;-87
2021/07/08 06:40:45;;;;;;;;;;;;;;;;;;4962423;28;19926;-86
2021/07/08 06:43:13;;;;;;;;;;;;;;;;;;4942695;28;19930;-87
2021/07/08 06:45:41;;;;;;;;;;;;;;;;;;4951551;28;19933;-86
2021/07/08 06:48:13;;;;;;;;;;;;;;;;;;4981012;28;20294;-85
2021/07/08 06:50:43;;;;;;;;;;;;;;;;;;4967436;28;19926;-86
2021/07/08 06:53:11;;;;;;;;;;;;;;;;;;4960909;28;20286;-87
2021/07/08 06:55:39;;;;;;;;;;;;;;;;;;4973551;28;19926;-87
2021/07/08 06:58:08;;;;;;;;;;;;;;;;;;4998246;28;19933;-86
2021/07/08 07:00:37;;;;;;;;;;;;;;;;;;4969169;28;19935;-85
2021/07/08 07:03:06;;;;;;;;;;;;;;;;;;4979206;28;20478;-86
2021/07/08 07:05:35;;;;;;;;;;;;;;;;;;4966341;28;19927;-86
2021/07/08 07:08:04;;;;;;;;;;;;;;;;;;4969094;28;20202;-86
2021/07/08 07:10:33;;;;;;;;;;;;;;;;;;4956726;28;19926;-86
2021/07/08 07:13:04;;;;;;;;;;;;;;;;;;5005589;28;19934;-85
2021/07/08 07:15:32;;;;;;;;;;;;;;;;;;4959384;28;20367;-86
2021/07/08 07:18:04;;;;;;;;;;;;;;;;;;4965454;28;19927;-87
2021/07/08 07:20:32;;;;;;;;;;;;;;;;;;4947381;28;19926;-86
2021/07/08 07:23:00;;;;;;;;;;;;;;;;;;4984679;28;19930;-85
2021/07/08 07:25:31;;;;;;;;;;;;;;;;;;4968875;28;19933;-86
2021/07/08 07:27:59;;;;;;;;;;;;;;;;;;4968934;28;19927;-87
2021/07/08 07:30:27;;;;;;;;;;;;;;;;;;4967078;28;20009;-85
2021/07/08 07:32:56;;;;;;;;;;;;;;;;;;4968575;28;19951;-86
2021/07/08 07:35:24;;;;;;;;;;;;;;;;;;4969935;28;19942;-87
2021/07/08 07:37:52;;;;;;;;;;;;;;;;;;4969922;28;19928;-86
2021/07/08 07:40:21;;;;;;;;;;;;;;;;;;4969776;28;19941;-87
2021/07/08 07:42:51;;;;;;;;;;;;;;;;;;4974527;28;19933;-87
2021/07/08 07:45:19;;;;;;;;;;;;;;;;;;4976924;28;19930;-87
2021/07/08 07:47:52;;;;;;;;;;;;;;;;;;4993051;28;19941;-87
2021/07/08 07:50:24;;;;;;;;;;;;;;;;;;4964686;28;19927;-86
2021/07/08 07:52:54;;;;;;;;;;;;;;;;;;4949183;28;19926;-86
2021/07/08 07:55:26;;;;;;;;;;;;;;;;;;4952430;28;19926;-86
2021/07/08 07:57:56;;;;;;;;;;;;;;;;;;4966157;28;20305;-87
2021/07/08 08:00:25;;;;;;;;;;;;;;;;;;4979584;28;19949;-87
2021/07/08 08:02:53;;;;;;;;;;;;;;;;;;4970812;28;19926;-85
2021/07/08 08:05:33;;;;;;;;;;;;;;;;;;4968117;28;19926;-87
2021/07/08 08:10:47;;;;;;;;;;;;;;;;;;4986489;28;19922;-85
2021/07/08 08:13:17;;;;;;;;;;;;;;;;;;4973066;28;19933;-86
2021/07/08 08:15:45;;;;;;;;;;;;;;;;;;4989606;28;19924;-85
2021/07/08 08:18:15;;;;;;;;;;;;;;;;;;5008440;28;19926;-87
2021/07/08 08:20:43;;;;;;;;;;;;;;;;;;4964515;28;19933;-86
2021/07/08 08:23:11;;;;;;;;;;;;;;;;;;4974865;28;20114;-87
2021/07/08 08:25:40;;;;;;;;;;;;;;;;;;4964631;28;19926;-86
2021/07/08 08:28:08;;;;;;;;;;;;;;;;;;4947678;28;19941;-86
2021/07/08 08:30:38;;;;;;;;;;;;;;;;;;4948785;28;20382;-85
2021/07/08 08:33:06;;;;;;;;;;;;;;;;;;5074466;28;19930;-83
2021/07/08 08:35:35;;;;;;;;;;;;;;;;;;4984080;28;19927;-86
2021/07/08 08:38:03;;;;;;;;;;;;;;;;;;4961813;28;19930;-84
2021/07/08 08:40:31;;;;;;;;;;;;;;;;;;4960148;28;19933;-84
2021/07/08 08:43:00;;;;;;;;;;;;;;;;;;4948058;28;20606;-85
2021/07/08 08:45:29;;;;;;;;;;;;;;;;;;4964250;28;20020;-85
2021/07/08 08:48:01;;;;;;;;;;;;;;;;;;4977179;28;19952;-86
2021/07/08 08:50:33;;;;;;;;;;;;;;;;;;4955934;28;20265;-86
2021/07/08 08:53:03;;;;;;;;;;;;;;;;;;4985016;28;19941;-85
2021/07/08 08:55:33;;;;;;;;;;;;;;;;;;4947666;28;20297;-85
2021/07/08 08:58:02;;;;;;;;;;;;;;;;;;4962738;28;19934;-83
2021/07/08 09:00:40;;;;;;;;;;;;;;;;;;4962966;28;20317;-86
2021/07/08 09:03:11;;;;;;;;;;;;;;;;;;4979408;28;19933;-86
2021/07/08 09:05:40;;;;;;;;;;;;;;;;;;4946533;28;19965;-86
2021/07/08 09:08:09;;;;;;;;;;;;;;;;;;4951224;28;20403;-86
2021/07/08 09:10:37;;;;;;;;;;;;;;;;;;4968135;28;20456;-85
2021/07/08 09:13:06;;;;;;;;;;;;;;;;;;4968818;28;19938;-86
2021/07/08 09:15:35;;;;;;;;;;;;;;;;;;5000411;28;19926;-86
2021/07/08 09:18:03;;;;;;;;;;;;;;;;;;4963956;28;19926;-84
2021/07/08 09:20:35;;;;;;;;;;;;;;;;;;4984475;28;19926;-86
2021/07/08 09:23:17;;;;;;;;;;;;;;;;;;4965512;28;19926;-84
2021/07/08 09:25:45;;;;;;;;;;;;;;;;;;4961505;28;20621;-84
2021/07/08 09:28:21;;;;;;;;;;;;;;;;;;4968519;28;19933;-84
2021/07/08 09:30:57;;;;;;;;;;;;;;;;;;4971868;28;19932;-84
2021/07/08 09:33:35;;;;;;;;;;;;;;;;;;4984450;28;19926;-85
2021/07/08 09:36:09;;;;;;;;;;;;;;;;;;4972474;28;19930;-84
2021/07/08 09:38:38;;;;;;;;;;;;;;;;;;5004266;28;20418;-84
2021/07/08 09:41:07;;;;;;;;;;;;;;;;;;4966387;28;19934;-85
2021/07/08 09:43:38;;;;;;;;;;;;;;;;;;4972442;28;19956;-83
2021/07/08 09:46:07;;;;;;;;;;;;;;;;;;4969279;28;20341;-83
2021/07/08 09:48:35;;;;;;;;;;;;;;;;;;4957682;28;20389;-85
2021/07/08 09:51:03;;;;;;;;;;;;;;;;;;4973992;28;19927;-83
2021/07/08 09:53:33;;;;;;;;;;;;;;;;;;4973991;28;19927;-85
2021/07/08 09:56:05;;;;;;;;;;;;;;;;;;4989916;28;19926;-84
2021/07/08 09:58:35;;;;;;;;;;;;;;;;;;4957502;28;19937;-85
2021/07/08 10:01:11;;;;;;;;;;;;;;;;;;4990382;28;19927;-83
2021/07/08 10:03:39;;;;;;;;;;;;;;;;;;4974111;28;19930;-85
2021/07/08 10:06:07;;;;;;;;;;;;;;;;;;4975250;28;19926;-86
2021/07/08 10:08:37;;;;;;;;;;;;;;;;;;4976948;28;20341;-86
2021/07/08 10:11:05;;;;;;;;;;;;;;;;;;5011845;28;19927;-86
2021/07/08 10:13:34;;;;;;;;;;;;;;;;;;4980068;28;19927;-85
2021/07/08 10:16:03;;;;;;;;;;;;;;;;;;4970924;28;19933;-85
2021/07/08 10:18:32;;;;;;;;;;;;;;;;;;4965890;28;19926;-86
2021/07/08 10:21:00;;;;;;;;;;;;;;;;;;4988175;28;19928;-84
2021/07/08 10:23:32;;;;;;;;;;;;;;;;;;4972674;28;19927;-84
2021/07/08 10:26:02;;;;;;;;;;;;;;;;;;4966341;28;19926;-86
2021/07/08 10:28:40;;;;;;;;;;;;;;;;;;4976936;28;19937;-86
2021/07/08 10:31:08;;;;;;;;;;;;;;;;;;4986234;28;20275;-86
2021/07/08 10:33:37;;;;;;;;;;;;;;;;;;4974894;28;19930;-85
2021/07/08 10:36:05;;;;;;;;;;;;;;;;;;4999540;28;19933;-86
2021/07/08 10:38:34;;;;;;;;;;;;;;;;;;4988748;28;19927;-85
2021/07/08 10:41:19;;;;;;;;;;;;;;;;;;4977902;28;19933;-86
2021/07/08 10:43:48;;;;;;;;;;;;;;;;;;4981049;28;19927;-84
2021/07/08 10:46:37;;;;;;;;;;;;;;;;;;4966315;28;19930;-84
2021/07/08 10:49:10;;;;;;;;;;;;;;;;;;4994014;28;19925;-84
2021/07/08 10:51:40;;;;;;;;;;;;;;;;;;4980019;28;19926;-84
2021/07/08 10:54:24;;;;;;;;;;;;;;;;;;4985905;28;19926;-85
2021/07/08 10:56:52;;;;;;;;;;;;;;;;;;4980813;28;19937;-84
2021/07/08 10:59:22;;;;;;;;;;;;;;;;;;4963279;28;19942;-84
2021/07/08 11:01:52;;;;;;;;;;;;;;;;;;5019940;28;19930;-84
2021/07/08 11:04:35;;;;;;;;;;;;;;;;;;4990285;28;19930;-84
2021/07/08 11:07:12;;;;;;;;;;;;;;;;;;5005356;28;19930;-85
2021/07/08 11:09:54;;;;;;;;;;;;;;;;;;4972299;28;19937;-86
2021/07/08 11:12:30;;;;;;;;;;;;;;;;;;4956317;28;19933;-85
2021/07/08 11:15:00;;;;;;;;;;;;;;;;;;5008110;28;19926;-85
2021/07/08 11:17:28;;;;;;;;;;;;;;;;;;5004913;28;20342;-83
2021/07/08 11:19:57;;;;;;;;;;;;;;;;;;4976117;28;19926;-83
2021/07/08 11:22:33;;;;;;;;;;;;;;;;;;4957567;28;19926;-81
2021/07/08 11:25:04;;;;;;;;;;;;;;;;;;5002408;28;19924;-82
2021/07/08 11:27:34;;;;;;;;;;;;;;;;;;4978629;28;19936;-82
2021/07/08 11:30:05;;;;;;;;;;;;;;;;;;4994886;28;19924;-83
2021/07/08 11:32:54;;;;;;;;;;;;;;;;;;5009777;28;19917;-82
2021/07/08 11:35:24;;;;;;;;;;;;;;;;;;4983587;28;19932;-84
2021/07/08 11:37:53;;;;;;;;;;;;;;;;;;4975922;28;20053;-82
2021/07/08 11:40:43;;;;;;;;;;;;;;;;;;4928974;28;20400;-83
2021/07/08 11:43:13;;;;;;;;;;;;;;;;;;4973631;28;19926;-85
2021/07/08 11:45:47;;;;;;;;;;;;;;;;;;4971381;28;20301;-81
2021/07/08 11:48:23;;;;;;;;;;;;;;;;;;4988776;28;19927;-81
2021/07/08 11:50:59;;;;;;;;;;;;;;;;;;4975912;28;20309;-81
2021/07/08 11:53:28;;;;;;;;;;;;;;;;;;4986317;28;19941;-82
2021/07/08 11:55:57;;;;;;;;;;;;;;;;;;4968151;28;19937;-82
2021/07/08 11:58:54;;;;;;;;;;;;;;;;;;4965156;28;19930;-82
2021/07/08 12:01:24;;;;;;;;;;;;;;;;;;4980183;28;19926;-82
2021/07/08 12:03:54;;;;;;;;;;;;;;;;;;4962381;28;19934;-83
2021/07/08 12:06:24;;;;;;;;;;;;;;;;;;4999871;28;19937;-82
2021/07/08 12:08:54;;;;;;;;;;;;;;;;;;4949640;28;19926;-83
2021/07/08 12:11:26;;;;;;;;;;;;;;;;;;4992245;28;20601;-81
2021/07/08 12:13:55;;;;;;;;;;;;;;;;;;4964826;28;19926;-83
2021/07/08 12:16:47;;;;;;;;;;;;;;;;;;4964940;28;19938;-80
2021/07/08 12:19:19;;;;;;;;;;;;;;;;;;4963540;28;19926;-81
2021/07/08 12:21:48;;;;;;;;;;;;;;;;;;4977997;28;20353;-81
2021/07/08 12:24:20;;;;;;;;;;;;;;;;;;4945588;28;19941;-80
2021/07/08 12:26:48;;;;;;;;;;;;;;;;;;4963021;28;19927;-80
2021/07/08 12:29:20;;;;;;;;;;;;;;;;;;4953530;28;19930;-83
2021/07/08 12:31:51;;;;;;;;;;;;;;;;;;4969575;28;19934;-82
2021/07/08 12:34:20;;;;;;;;;;;;;;;;;;4957460;28;19930;-81
2021/07/08 12:36:48;;;;;;;;;;;;;;;;;;4989730;28;19933;-82
2021/07/08 12:39:17;;;;;;;;;;;;;;;;;;4957628;28;20385;-82
2021/07/08 12:41:46;;;;;;;;;;;;;;;;;;4974855;28;19926;-82
2021/07/08 12:44:15;;;;;;;;;;;;;;;;;;4975036;28;19926;-81
2021/07/08 12:46:43;;;;;;;;;;;;;;;;;;4990737;28;19928;-81
2021/07/08 12:49:13;;;;;;;;;;;;;;;;;;4965574;28;19926;-80
2021/07/08 12:51:41;;;;;;;;;;;;;;;;;;4971091;28;19926;-81
2021/07/08 12:54:10;;;;;;;;;;;;;;;;;;4970792;28;20435;-80
2021/07/08 12:56:38;;;;;;;;;;;;;;;;;;4966609;28;19949;-79
2021/07/08 12:59:07;;;;;;;;;;;;;;;;;;4991790;28;19935;-80
2021/07/08 13:01:40;;;;;;;;;;;;;;;;;;4978520;28;19933;-79
2021/07/08 13:04:11;;;;;;;;;;;;;;;;;;4975993;28;19918;-82
2021/07/08 13:06:41;;;;;;;;;;;;;;;;;;5017223;28;19937;-82
2021/07/08 13:09:11;;;;;;;;;;;;;;;;;;4972101;28;20309;-83
2021/07/08 13:11:39;;;;;;;;;;;;;;;;;;4963020;28;19926;-83
2021/07/08 13:14:17;;;;;;;;;;;;;;;;;;4951692;28;19926;-83
2021/07/08 13:17:04;;;;;;;;;;;;;;;;;;4967795;28;20412;-82
2021/07/08 13:20:00;;;;;;;;;;;;;;;;;;4970580;28;19930;-81
2021/07/08 13:22:38;;;;;;;;;;;;;;;;;;4943391;28;20469;-83
2021/07/08 13:25:12;;;;;;;;;;;;;;;;;;4966382;28;19930;-83
2021/07/08 13:27:41;;;;;;;;;;;;;;;;;;4964732;28;19933;-82
2021/07/08 13:30:26;;;;;;;;;;;;;;;;;;4949933;28;19941;-83
2021/07/08 13:33:01;;;;;;;;;;;;;;;;;;4960829;28;20278;-83
2021/07/08 13:35:43;;;;;;;;;;;;;;;;;;4980233;28;19933;-84
2021/07/08 13:38:13;;;;;;;;;;;;;;;;;;4963241;28;19926;-83
2021/07/08 13:40:57;;;;;;;;;;;;;;;;;;4968267;28;19934;-82
2021/07/08 13:43:31;;;;;;;;;;;;;;;;;;4966812;28;19926;-83
2021/07/08 13:46:27;;;;;;;;;;;;;;;;;;4966734;28;20385;-83
2021/07/08 13:49:01;;;;;;;;;;;;;;;;;;4968591;28;19926;-84
2021/07/08 13:51:29;;;;;;;;;;;;;;;;;;4982421;28;19930;-81
2021/07/08 13:53:59;;;;;;;;;;;;;;;;;;4955678;28;20020;-83
2021/07/08 13:56:27;;;;;;;;;;;;;;;;;;4983488;28;19952;-84
2021/07/08 13:58:55;;;;;;;;;;;;;;;;;;4983626;28;19926;-84
2021/07/08 14:01:23;;;;;;;;;;;;;;;;;;4971433;28;19926;-83
2021/07/08 14:03:52;;;;;;;;;;;;;;;;;;4972279;28;19934;-83
2021/07/08 14:06:20;;;;;;;;;;;;;;;;;;4957209;28;19933;-83
2021/07/08 14:08:48;;;;;;;;;;;;;;;;;;4986394;28;19926;-83
2021/07/08 14:11:18;;;;;;;;;;;;;;;;;;4953207;28;19926;-85
2021/07/08 14:13:46;;;;;;;;;;;;;;;;;;4987528;28;19926;-85
2021/07/08 14:16:15;;;;;;;;;;;;;;;;;;4952680;28;19930;-83
2021/07/08 14:18:43;;;;;;;;;;;;;;;;;;4964214;28;20290;-83
2021/07/08 14:21:11;;;;;;;;;;;;;;;;;;4949832;28;19926;-81
2021/07/08 14:23:40;;;;;;;;;;;;;;;;;;4984040;28;19930;-82
2021/07/08 14:26:09;;;;;;;;;;;;;;;;;;4980331;28;19937;-85
2021/07/08 14:28:38;;;;;;;;;;;;;;;;;;4968161;28;19926;-85
2021/07/08 14:31:07;;;;;;;;;;;;;;;;;;4981203;28;19958;-85
2021/07/08 14:33:35;;;;;;;;;;;;;;;;;;4983245;28;19937;-85
2021/07/08 14:36:04;;;;;;;;;;;;;;;;;;4972601;28;20360;-85
2021/07/08 14:38:35;;;;;;;;;;;;;;;;;;4981946;28;19934;-85
2021/07/08 14:41:04;;;;;;;;;;;;;;;;;;4972745;28;19933;-85
2021/07/08 14:43:37;;;;;;;;;;;;;;;;;;4981444;28;20349;-84
2021/07/08 14:46:07;;;;;;;;;;;;;;;;;;4982501;28;19929;-85
2021/07/08 14:48:36;;;;;;;;;;;;;;;;;;5000070;28;19926;-84
2021/07/08 14:51:04;;;;;;;;;;;;;;;;;;4972214;28;19926;-85
2021/07/08 14:53:32;;;;;;;;;;;;;;;;;;4963300;28;20321;-81
2021/07/08 14:56:01;;;;;;;;;;;;;;;;;;4986245;28;19930;-82
2021/07/08 14:58:29;;;;;;;;;;;;;;;;;;4983019;28;20278;-82
2021/07/08 15:00:57;;;;;;;;;;;;;;;;;;4983631;28;19926;-82
2021/07/08 15:03:26;;;;;;;;;;;;;;;;;;4950608;28;20225;-84
2021/07/08 15:05:55;;;;;;;;;;;;;;;;;;4963491;28;19930;-84
2021/07/08 15:08:23;;;;;;;;;;;;;;;;;;4971271;28;20305;-82
2021/07/08 15:10:58;;;;;;;;;;;;;;;;;;4966804;28;20393;-84
2021/07/08 15:13:26;;;;;;;;;;;;;;;;;;4965439;28;19941;-83
2021/07/08 15:15:55;;;;;;;;;;;;;;;;;;4939760;28;20004;-84
2021/07/08 15:18:23;;;;;;;;;;;;;;;;;;4977931;28;19929;-84
2021/07/08 15:20:52;;;;;;;;;;;;;;;;;;4968447;28;19934;-84
2021/07/08 15:23:21;;;;;;;;;;;;;;;;;;4964518;28;19938;-82
2021/07/08 15:25:49;;;;;;;;;;;;;;;;;;4982577;28;19926;-83
2021/07/08 15:28:17;;;;;;;;;;;;;;;;;;4967910;28;19938;-83
2021/07/08 15:30:45;;;;;;;;;;;;;;;;;;4958062;28;20310;-82
2021/07/08 15:33:15;;;;;;;;;;;;;;;;;;4991917;28;19925;-82
2021/07/08 15:35:44;;;;;;;;;;;;;;;;;;4956083;28;19930;-82
2021/07/08 15:38:15;;;;;;;;;;;;;;;;;;4961789;28;20047;-82
2021/07/08 15:40:43;;;;;;;;;;;;;;;;;;4940141;28;19926;-84
2021/07/08 15:43:12;;;;;;;;;;;;;;;;;;4977122;28;19926;-82
2021/07/08 15:45:40;;;;;;;;;;;;;;;;;;4969502;28;19949;-85
2021/07/08 15:48:08;;;;;;;;;;;;;;;;;;4968165;28;19930;-85
2021/07/08 15:50:36;;;;;;;;;;;;;;;;;;4953557;28;19933;-85
2021/07/08 15:53:05;;;;;;;;;;;;;;;;;;4969350;28;19933;-85
2021/07/08 15:55:34;;;;;;;;;;;;;;;;;;4987685;28;19926;-86
2021/07/08 15:58:03;;;;;;;;;;;;;;;;;;4969404;28;19926;-87
2021/07/08 16:00:31;;;;;;;;;;;;;;;;;;4970446;28;19933;-87
2021/07/08 16:02:59;;;;;;;;;;;;;;;;;;5011781;28;19945;-86
2021/07/08 16:05:28;;;;;;;;;;;;;;;;;;4993794;28;19979;-84
2021/07/08 16:07:56;;;;;;;;;;;;;;;;;;5008833;28;19926;-84
2021/07/08 16:10:25;;;;;;;;;;;;;;;;;;4960783;28;19933;-84
2021/07/08 16:12:55;;;;;;;;;;;;;;;;;;4973420;28;20021;-88
2021/07/08 16:15:24;;;;;;;;;;;;;;;;;;4965362;28;20448;-88
2021/07/08 16:18:06;;;;;;;;;;;;;;;;;;4948257;28;19934;-88
2021/07/08 16:20:34;;;;;;;;;;;;;;;;;;4964299;28;20394;-87
2021/07/08 16:23:03;;;;;;;;;;;;;;;;;;4951686;28;19933;-88
2021/07/08 16:25:31;;;;;;;;;;;;;;;;;;4981330;28;19934;-87
2021/07/08 16:28:00;;;;;;;;;;;;;;;;;;4951350;28;19930;-87
2021/07/08 16:30:29;;;;;;;;;;;;;;;;;;4962739;28;20310;-88
2021/07/08 16:32:57;;;;;;;;;;;;;;;;;;5065164;28;20397;-87
2021/07/08 16:35:27;;;;;;;;;;;;;;;;;;4957074;28;20257;-88
2021/07/08 16:37:55;;;;;;;;;;;;;;;;;;4941307;28;20305;-89
2021/07/08 16:40:24;;;;;;;;;;;;;;;;;;4961439;28;19926;-90
2021/07/08 16:42:56;;;;;;;;;;;;;;;;;;4979479;28;19927;-88
2021/07/08 16:45:25;;;;;;;;;;;;;;;;;;4928602;28;19961;-88
2021/07/08 16:47:54;;;;;;;;;;;;;;;;;;4954688;28;21358;-88
2021/07/08 16:50:22;;;;;;;;;;;;;;;;;;4951734;28;19933;-88
2021/07/08 16:53:04;;;;;;;;;;;;;;;;;;4975000;28;19934;-88
2021/07/08 16:55:32;;;;;;;;;;;;;;;;;;4952416;28;19934;-89
2021/07/08 16:58:00;;;;;;;;;;;;;;;;;;4957645;28;20172;-89
2021/07/08 17:00:30;;;;;;;;;;;;;;;;;;4955237;28;19926;-89
2021/07/08 17:02:58;;;;;;;;;;;;;;;;;;4940508;28;20430;-89
2021/07/08 17:05:27;;;;;;;;;;;;;;;;;;4963000;28;20598;-89
2021/07/08 17:07:55;;;;;;;;;;;;;;;;;;4971111;28;19926;-88